sensor_id;sensor_type;location;lat;lon;timestamp;temperature;humidity
33105;DHT22;19476;51.448;6.674;2023-12-22T00:02:18;11.20;58.60
33105;DHT22;19476;51.448;6.674;2023-12-22T00:04:45;11.20;58.70
33105;DHT22;19476;51.448;6.674;2023-12-22T00:07:11;11.20;58.70
33105;DHT22;19476;51.448;6.674;2023-12-22T00:09:36;11.20;59.00
33105;DHT22;19476;51.448;6.674;2023-12-22T00:12:02;11.20;59.00
33105;DHT22;19476;51.448;6.674;2023-12-22T00:14:28;11.30;59.10
33105;DHT22;19476;51.448;6.674;2023-12-22T00:16:53;11.30;59.10
33105;DHT22;19476;51.448;6.674;2023-12-22T00:19:19;11.30;59.00
33105;DHT22;19476;51.448;6.674;2023-12-22T00:21:44;11.30;58.90
33105;DHT22;19476;51.448;6.674;2023-12-22T00:24:10;11.30;58.90
33105;DHT22;19476;51.448;6.674;2023-12-22T00:26:36;11.30;59.00
33105;DHT22;19476;51.448;6.674;2023-12-22T00:29:01;11.40;59.10
33105;DHT22;19476;51.448;6.674;2023-12-22T00:31:27;11.40;59.00
33105;DHT22;19476;51.448;6.674;2023-12-22T00:33:53;11.40;59.20
33105;DHT22;19476;51.448;6.674;2023-12-22T00:36:18;11.40;59.20
33105;DHT22;19476;51.448;6.674;2023-12-22T00:38:45;11.40;59.30
33105;DHT22;19476;51.448;6.674;2023-12-22T00:41:11;11.50;59.20
33105;DHT22;19476;51.448;6.674;2023-12-22T00:43:37;11.50;59.20
33105;DHT22;19476;51.448;6.674;2023-12-22T00:46:02;11.60;59.30
33105;DHT22;19476;51.448;6.674;2023-12-22T00:48:28;11.50;59.20
33105;DHT22;19476;51.448;6.674;2023-12-22T00:50:53;11.60;59.10
33105;DHT22;19476;51.448;6.674;2023-12-22T00:53:19;11.70;59.00
33105;DHT22;19476;51.448;6.674;2023-12-22T00:55:45;11.70;59.00
33105;DHT22;19476;51.448;6.674;2023-12-22T00:58:11;11.70;58.70
33105;DHT22;19476;51.448;6.674;2023-12-22T01:00:36;11.70;58.80
33105;DHT22;19476;51.448;6.674;2023-12-22T01:03:02;11.80;58.90
33105;DHT22;19476;51.448;6.674;2023-12-22T01:05:28;11.80;58.30
33105;DHT22;19476;51.448;6.674;2023-12-22T01:07:53;11.70;58.30
33105;DHT22;19476;51.448;6.674;2023-12-22T01:10:19;11.70;58.40
33105;DHT22;19476;51.448;6.674;2023-12-22T01:12:45;11.70;58.30
33105;DHT22;19476;51.448;6.674;2023-12-22T01:15:10;11.70;58.40
33105;DHT22;19476;51.448;6.674;2023-12-22T01:17:36;11.80;58.50
33105;DHT22;19476;51.448;6.674;2023-12-22T01:20:02;11.70;58.50
33105;DHT22;19476;51.448;6.674;2023-12-22T01:22:27;11.80;58.70
33105;DHT22;19476;51.448;6.674;2023-12-22T01:24:53;11.80;58.70
33105;DHT22;19476;51.448;6.674;2023-12-22T01:27:19;11.80;58.50
33105;DHT22;19476;51.448;6.674;2023-12-22T01:29:45;11.80;58.50
33105;DHT22;19476;51.448;6.674;2023-12-22T01:32:10;11.90;58.50
33105;DHT22;19476;51.448;6.674;2023-12-22T01:34:36;11.90;58.20
33105;DHT22;19476;51.448;6.674;2023-12-22T01:37:01;11.90;58.00
33105;DHT22;19476;51.448;6.674;2023-12-22T01:39:27;11.90;57.90
33105;DHT22;19476;51.448;6.674;2023-12-22T01:41:53;11.90;58.00
33105;DHT22;19476;51.448;6.674;2023-12-22T01:44:18;12.00;57.00
33105;DHT22;19476;51.448;6.674;2023-12-22T01:46:44;11.90;57.50
33105;DHT22;19476;51.448;6.674;2023-12-22T01:49:09;11.90;57.60
33105;DHT22;19476;51.448;6.674;2023-12-22T01:51:36;11.80;57.70
33105;DHT22;19476;51.448;6.674;2023-12-22T01:54:02;11.80;57.10
33105;DHT22;19476;51.448;6.674;2023-12-22T01:56:28;11.70;57.30
33105;DHT22;19476;51.448;6.674;2023-12-22T01:58:55;11.60;57.20
33105;DHT22;19476;51.448;6.674;2023-12-22T02:01:22;11.60;57.50
33105;DHT22;19476;51.448;6.674;2023-12-22T02:03:49;11.50;57.70
33105;DHT22;19476;51.448;6.674;2023-12-22T02:06:17;11.50;57.60
33105;DHT22;19476;51.448;6.674;2023-12-22T02:08:43;11.50;57.60
33105;DHT22;19476;51.448;6.674;2023-12-22T02:11:11;11.40;57.50
33105;DHT22;19476;51.448;6.674;2023-12-22T02:13:36;11.30;57.70
33105;DHT22;19476;51.448;6.674;2023-12-22T02:16:08;11.20;57.90
33105;DHT22;19476;51.448;6.674;2023-12-22T02:18:38;11.10;58.10
33105;DHT22;19476;51.448;6.674;2023-12-22T02:21:04;11.00;58.30
33105;DHT22;19476;51.448;6.674;2023-12-22T02:23:30;11.00;58.40
33105;DHT22;19476;51.448;6.674;2023-12-22T02:25:56;10.90;58.40
33105;DHT22;19476;51.448;6.674;2023-12-22T02:28:23;10.90;58.60
33105;DHT22;19476;51.448;6.674;2023-12-22T02:33:17;10.90;59.00
33105;DHT22;19476;51.448;6.674;2023-12-22T02:35:44;10.80;59.00
33105;DHT22;19476;51.448;6.674;2023-12-22T02:38:11;10.80;59.30
33105;DHT22;19476;51.448;6.674;2023-12-22T02:40:37;10.80;59.40
33105;DHT22;19476;51.448;6.674;2023-12-22T02:43:04;10.80;60.10
33105;DHT22;19476;51.448;6.674;2023-12-22T02:45:30;10.80;59.70
33105;DHT22;19476;51.448;6.674;2023-12-22T02:47:57;10.80;59.60
33105;DHT22;19476;51.448;6.674;2023-12-22T02:50:23;10.80;59.70
33105;DHT22;19476;51.448;6.674;2023-12-22T02:52:48;10.80;59.90
33105;DHT22;19476;51.448;6.674;2023-12-22T02:55:14;10.80;59.90
33105;DHT22;19476;51.448;6.674;2023-12-22T02:57:40;10.80;59.80
33105;DHT22;19476;51.448;6.674;2023-12-22T03:00:05;10.90;60.00
33105;DHT22;19476;51.448;6.674;2023-12-22T03:02:32;10.90;60.20
33105;DHT22;19476;51.448;6.674;2023-12-22T03:04:57;10.90;60.10
33105;DHT22;19476;51.448;6.674;2023-12-22T03:07:23;10.90;60.10
33105;DHT22;19476;51.448;6.674;2023-12-22T03:09:49;10.90;60.80
33105;DHT22;19476;51.448;6.674;2023-12-22T03:12:14;10.90;60.10
33105;DHT22;19476;51.448;6.674;2023-12-22T03:14:40;11.00;60.10
33105;DHT22;19476;51.448;6.674;2023-12-22T03:17:06;10.90;60.20
33105;DHT22;19476;51.448;6.674;2023-12-22T03:19:32;11.00;60.30
33105;DHT22;19476;51.448;6.674;2023-12-22T03:21:58;11.00;60.20
33105;DHT22;19476;51.448;6.674;2023-12-22T03:24:24;11.00;60.00
33105;DHT22;19476;51.448;6.674;2023-12-22T03:26:50;11.00;59.90
33105;DHT22;19476;51.448;6.674;2023-12-22T03:29:16;11.00;59.90
33105;DHT22;19476;51.448;6.674;2023-12-22T03:31:41;11.00;60.00
33105;DHT22;19476;51.448;6.674;2023-12-22T03:34:07;11.00;59.90
33105;DHT22;19476;51.448;6.674;2023-12-22T03:36:32;11.00;59.80
33105;DHT22;19476;51.448;6.674;2023-12-22T03:38:58;11.00;59.70
33105;DHT22;19476;51.448;6.674;2023-12-22T03:41:24;11.10;59.70
33105;DHT22;19476;51.448;6.674;2023-12-22T03:43:49;11.10;59.60
33105;DHT22;19476;51.448;6.674;2023-12-22T03:46:15;11.10;59.40
33105;DHT22;19476;51.448;6.674;2023-12-22T03:48:41;11.10;59.40
33105;DHT22;19476;51.448;6.674;2023-12-22T03:51:06;11.10;59.40
33105;DHT22;19476;51.448;6.674;2023-12-22T03:53:32;11.10;59.40
33105;DHT22;19476;51.448;6.674;2023-12-22T03:55:57;11.10;59.40
33105;DHT22;19476;51.448;6.674;2023-12-22T03:58:23;11.10;59.30
33105;DHT22;19476;51.448;6.674;2023-12-22T04:00:49;11.20;59.30
33105;DHT22;19476;51.448;6.674;2023-12-22T04:03:15;11.20;59.10
33105;DHT22;19476;51.448;6.674;2023-12-22T04:05:41;11.20;59.00
33105;DHT22;19476;51.448;6.674;2023-12-22T04:08:06;11.20;58.80
33105;DHT22;19476;51.448;6.674;2023-12-22T04:10:32;11.20;58.70
33105;DHT22;19476;51.448;6.674;2023-12-22T04:12:57;11.30;58.50
33105;DHT22;19476;51.448;6.674;2023-12-22T04:15:23;11.30;58.30
33105;DHT22;19476;51.448;6.674;2023-12-22T04:17:49;11.30;58.30
33105;DHT22;19476;51.448;6.674;2023-12-22T04:20:15;11.30;58.20
33105;DHT22;19476;51.448;6.674;2023-12-22T04:22:40;11.30;57.70
33105;DHT22;19476;51.448;6.674;2023-12-22T04:25:06;11.40;58.00
33105;DHT22;19476;51.448;6.674;2023-12-22T04:27:33;11.30;58.10
33105;DHT22;19476;51.448;6.674;2023-12-22T04:29:58;11.30;58.30
33105;DHT22;19476;51.448;6.674;2023-12-22T04:32:24;11.40;58.20
33105;DHT22;19476;51.448;6.674;2023-12-22T04:34:49;11.40;58.20
33105;DHT22;19476;51.448;6.674;2023-12-22T04:37:15;11.50;58.30
33105;DHT22;19476;51.448;6.674;2023-12-22T04:39:41;11.50;57.80
33105;DHT22;19476;51.448;6.674;2023-12-22T04:42:06;11.50;58.00
33105;DHT22;19476;51.448;6.674;2023-12-22T04:44:32;11.50;58.00
33105;DHT22;19476;51.448;6.674;2023-12-22T04:46:57;11.50;58.00
33105;DHT22;19476;51.448;6.674;2023-12-22T04:49:23;11.50;58.20
33105;DHT22;19476;51.448;6.674;2023-12-22T04:51:48;11.60;58.40
33105;DHT22;19476;51.448;6.674;2023-12-22T04:54:14;11.70;58.60
33105;DHT22;19476;51.448;6.674;2023-12-22T04:56:39;11.70;58.70
33105;DHT22;19476;51.448;6.674;2023-12-22T04:59:05;11.70;58.70
33105;DHT22;19476;51.448;6.674;2023-12-22T05:01:31;12.20;59.00
33105;DHT22;19476;51.448;6.674;2023-12-22T05:03:56;11.90;58.80
33105;DHT22;19476;51.448;6.674;2023-12-22T05:06:22;12.00;58.80
33105;DHT22;19476;51.448;6.674;2023-12-22T05:08:47;12.00;58.90
33105;DHT22;19476;51.448;6.674;2023-12-22T05:11:13;12.10;58.90
33105;DHT22;19476;51.448;6.674;2023-12-22T05:13:38;12.20;58.90
33105;DHT22;19476;51.448;6.674;2023-12-22T05:16:05;12.20;58.70
33105;DHT22;19476;51.448;6.674;2023-12-22T05:18:31;12.30;58.60
33105;DHT22;19476;51.448;6.674;2023-12-22T05:20:57;12.20;58.20
33105;DHT22;19476;51.448;6.674;2023-12-22T05:23:22;12.20;58.10
33105;DHT22;19476;51.448;6.674;2023-12-22T05:25:50;12.10;58.00
33105;DHT22;19476;51.448;6.674;2023-12-22T05:28:16;12.10;58.00
33105;DHT22;19476;51.448;6.674;2023-12-22T05:30:42;12.10;58.00
33105;DHT22;19476;51.448;6.674;2023-12-22T05:33:08;12.10;57.90
33105;DHT22;19476;51.448;6.674;2023-12-22T05:35:33;12.00;57.90
33105;DHT22;19476;51.448;6.674;2023-12-22T05:37:59;12.00;57.90
33105;DHT22;19476;51.448;6.674;2023-12-22T05:40:24;11.90;57.90
33105;DHT22;19476;51.448;6.674;2023-12-22T05:42:50;11.90;58.10
33105;DHT22;19476;51.448;6.674;2023-12-22T05:45:15;11.80;58.20
33105;DHT22;19476;51.448;6.674;2023-12-22T05:47:41;11.80;58.20
33105;DHT22;19476;51.448;6.674;2023-12-22T05:50:07;11.80;58.30
33105;DHT22;19476;51.448;6.674;2023-12-22T05:52:33;11.80;58.30
33105;DHT22;19476;51.448;6.674;2023-12-22T05:54:58;11.80;58.30
33105;DHT22;19476;51.448;6.674;2023-12-22T05:57:27;11.80;58.40
33105;DHT22;19476;51.448;6.674;2023-12-22T05:59:52;11.80;58.60
33105;DHT22;19476;51.448;6.674;2023-12-22T06:02:18;11.80;58.20
33105;DHT22;19476;51.448;6.674;2023-12-22T06:04:43;11.80;58.90
33105;DHT22;19476;51.448;6.674;2023-12-22T06:07:10;11.90;58.50
33105;DHT22;19476;51.448;6.674;2023-12-22T06:09:35;11.90;58.60
33105;DHT22;19476;51.448;6.674;2023-12-22T06:12:01;11.90;58.50
33105;DHT22;19476;51.448;6.674;2023-12-22T06:14:27;11.90;58.40
33105;DHT22;19476;51.448;6.674;2023-12-22T06:16:52;11.90;58.40
33105;DHT22;19476;51.448;6.674;2023-12-22T06:19:19;12.00;58.40
33105;DHT22;19476;51.448;6.674;2023-12-22T06:21:44;12.00;58.40
33105;DHT22;19476;51.448;6.674;2023-12-22T06:24:10;12.00;58.30
33105;DHT22;19476;51.448;6.674;2023-12-22T06:26:36;12.10;58.20
33105;DHT22;19476;51.448;6.674;2023-12-22T06:29:02;12.10;58.10
33105;DHT22;19476;51.448;6.674;2023-12-22T06:31:29;12.20;57.90
33105;DHT22;19476;51.448;6.674;2023-12-22T06:33:54;12.20;57.70
33105;DHT22;19476;51.448;6.674;2023-12-22T06:36:23;12.30;57.50
33105;DHT22;19476;51.448;6.674;2023-12-22T06:38:52;12.30;57.90
33105;DHT22;19476;51.448;6.674;2023-12-22T06:41:27;12.30;57.70
33105;DHT22;19476;51.448;6.674;2023-12-22T06:43:54;12.40;57.60
33105;DHT22;19476;51.448;6.674;2023-12-22T06:46:20;12.40;57.30
33105;DHT22;19476;51.448;6.674;2023-12-22T06:48:47;12.40;56.50
33105;DHT22;19476;51.448;6.674;2023-12-22T06:51:19;12.50;56.90
33105;DHT22;19476;51.448;6.674;2023-12-22T06:53:46;12.50;57.10
33105;DHT22;19476;51.448;6.674;2023-12-22T06:56:24;12.50;57.10
33105;DHT22;19476;51.448;6.674;2023-12-22T06:58:50;12.60;57.20
33105;DHT22;19476;51.448;6.674;2023-12-22T07:01:25;12.70;56.70
33105;DHT22;19476;51.448;6.674;2023-12-22T07:03:50;12.70;56.40
33105;DHT22;19476;51.448;6.674;2023-12-22T07:06:16;12.70;56.30
33105;DHT22;19476;51.448;6.674;2023-12-22T07:08:42;12.80;55.70
33105;DHT22;19476;51.448;6.674;2023-12-22T07:11:09;12.80;55.70
33105;DHT22;19476;51.448;6.674;2023-12-22T07:13:34;12.80;55.90
33105;DHT22;19476;51.448;6.674;2023-12-22T07:16:00;12.70;55.80
33105;DHT22;19476;51.448;6.674;2023-12-22T07:18:27;12.80;55.90
33105;DHT22;19476;51.448;6.674;2023-12-22T07:20:59;12.80;56.20
33105;DHT22;19476;51.448;6.674;2023-12-22T07:23:25;12.80;56.50
33105;DHT22;19476;51.448;6.674;2023-12-22T07:25:50;12.80;56.70
33105;DHT22;19476;51.448;6.674;2023-12-22T07:28:16;12.70;56.90
33105;DHT22;19476;51.448;6.674;2023-12-22T07:30:41;12.70;57.30
33105;DHT22;19476;51.448;6.674;2023-12-22T07:33:07;12.70;57.40
33105;DHT22;19476;51.448;6.674;2023-12-22T07:35:33;12.70;57.40
33105;DHT22;19476;51.448;6.674;2023-12-22T07:37:58;12.70;57.50
33105;DHT22;19476;51.448;6.674;2023-12-22T07:40:24;12.70;57.60
33105;DHT22;19476;51.448;6.674;2023-12-22T07:42:50;12.70;57.70
33105;DHT22;19476;51.448;6.674;2023-12-22T07:45:16;12.60;57.90
33105;DHT22;19476;51.448;6.674;2023-12-22T07:47:41;12.60;58.00
33105;DHT22;19476;51.448;6.674;2023-12-22T07:50:07;12.60;58.10
33105;DHT22;19476;51.448;6.674;2023-12-22T07:52:36;12.60;58.20
33105;DHT22;19476;51.448;6.674;2023-12-22T07:55:05;12.60;58.20
33105;DHT22;19476;51.448;6.674;2023-12-22T07:57:31;12.60;58.30
33105;DHT22;19476;51.448;6.674;2023-12-22T07:59:56;12.60;58.30
33105;DHT22;19476;51.448;6.674;2023-12-22T08:02:22;12.60;58.30
33105;DHT22;19476;51.448;6.674;2023-12-22T08:04:49;12.60;58.50
33105;DHT22;19476;51.448;6.674;2023-12-22T08:07:15;12.60;58.80
33105;DHT22;19476;51.448;6.674;2023-12-22T08:09:41;12.60;58.80
33105;DHT22;19476;51.448;6.674;2023-12-22T08:12:07;12.60;59.00
33105;DHT22;19476;51.448;6.674;2023-12-22T08:14:33;12.70;59.20
33105;DHT22;19476;51.448;6.674;2023-12-22T08:16:58;12.70;59.20
33105;DHT22;19476;51.448;6.674;2023-12-22T08:19:24;12.70;59.20
33105;DHT22;19476;51.448;6.674;2023-12-22T08:21:54;12.70;59.30
33105;DHT22;19476;51.448;6.674;2023-12-22T08:24:22;12.70;59.40
33105;DHT22;19476;51.448;6.674;2023-12-22T08:26:48;12.70;59.40
33105;DHT22;19476;51.448;6.674;2023-12-22T08:29:13;12.70;59.50
33105;DHT22;19476;51.448;6.674;2023-12-22T08:31:39;12.70;59.60
33105;DHT22;19476;51.448;6.674;2023-12-22T08:34:05;12.80;59.60
33105;DHT22;19476;51.448;6.674;2023-12-22T08:36:31;12.80;59.70
33105;DHT22;19476;51.448;6.674;2023-12-22T08:38:56;12.80;59.80
33105;DHT22;19476;51.448;6.674;2023-12-22T08:41:22;12.90;59.80
33105;DHT22;19476;51.448;6.674;2023-12-22T08:43:48;12.90;59.90
33105;DHT22;19476;51.448;6.674;2023-12-22T08:46:13;12.90;59.90
33105;DHT22;19476;51.448;6.674;2023-12-22T08:48:39;12.90;60.20
33105;DHT22;19476;51.448;6.674;2023-12-22T08:51:05;12.90;60.50
33105;DHT22;19476;51.448;6.674;2023-12-22T08:53:31;12.90;60.70
33105;DHT22;19476;51.448;6.674;2023-12-22T08:55:59;12.90;60.70
33105;DHT22;19476;51.448;6.674;2023-12-22T08:58:25;13.00;60.90
33105;DHT22;19476;51.448;6.674;2023-12-22T09:00:51;13.00;60.80
33105;DHT22;19476;51.448;6.674;2023-12-22T09:03:16;13.00;60.70
33105;DHT22;19476;51.448;6.674;2023-12-22T09:05:42;13.00;60.60
33105;DHT22;19476;51.448;6.674;2023-12-22T09:08:08;13.10;60.60
33105;DHT22;19476;51.448;6.674;2023-12-22T09:10:33;13.10;60.50
33105;DHT22;19476;51.448;6.674;2023-12-22T09:12:59;13.10;60.30
33105;DHT22;19476;51.448;6.674;2023-12-22T09:15:25;13.20;60.10
33105;DHT22;19476;51.448;6.674;2023-12-22T09:17:52;13.20;60.00
33105;DHT22;19476;51.448;6.674;2023-12-22T09:20:18;13.20;60.00
33105;DHT22;19476;51.448;6.674;2023-12-22T09:22:44;13.20;60.00
33105;DHT22;19476;51.448;6.674;2023-12-22T09:25:09;13.20;59.90
33105;DHT22;19476;51.448;6.674;2023-12-22T09:27:35;13.20;60.00
33105;DHT22;19476;51.448;6.674;2023-12-22T09:30:00;13.20;60.10
33105;DHT22;19476;51.448;6.674;2023-12-22T09:32:26;13.20;60.20
33105;DHT22;19476;51.448;6.674;2023-12-22T09:34:52;13.20;60.40
33105;DHT22;19476;51.448;6.674;2023-12-22T09:37:18;13.30;60.70
33105;DHT22;19476;51.448;6.674;2023-12-22T09:39:43;13.30;60.80
33105;DHT22;19476;51.448;6.674;2023-12-22T09:42:09;13.30;60.90
33105;DHT22;19476;51.448;6.674;2023-12-22T09:44:34;13.40;61.10
33105;DHT22;19476;51.448;6.674;2023-12-22T09:47:01;13.30;61.30
33105;DHT22;19476;51.448;6.674;2023-12-22T09:49:28;13.40;61.50
33105;DHT22;19476;51.448;6.674;2023-12-22T09:51:54;13.30;61.50
33105;DHT22;19476;51.448;6.674;2023-12-22T09:54:20;13.50;61.70
33105;DHT22;19476;51.448;6.674;2023-12-22T09:56:46;13.30;61.70
33105;DHT22;19476;51.448;6.674;2023-12-22T09:59:12;13.30;61.80
33105;DHT22;19476;51.448;6.674;2023-12-22T10:01:44;13.30;62.30
33105;DHT22;19476;51.448;6.674;2023-12-22T10:04:12;13.30;61.90
33105;DHT22;19476;51.448;6.674;2023-12-22T10:06:37;13.30;62.00
33105;DHT22;19476;51.448;6.674;2023-12-22T10:09:04;13.40;62.80
33105;DHT22;19476;51.448;6.674;2023-12-22T10:11:31;13.30;62.20
33105;DHT22;19476;51.448;6.674;2023-12-22T10:13:57;13.40;62.30
33105;DHT22;19476;51.448;6.674;2023-12-22T10:16:24;13.40;62.40
33105;DHT22;19476;51.448;6.674;2023-12-22T10:18:50;13.40;62.30
33105;DHT22;19476;51.448;6.674;2023-12-22T10:21:15;13.40;62.50
33105;DHT22;19476;51.448;6.674;2023-12-22T10:23:41;13.40;62.40
33105;DHT22;19476;51.448;6.674;2023-12-22T10:26:07;13.50;62.60
33105;DHT22;19476;51.448;6.674;2023-12-22T10:28:33;13.50;62.60
33105;DHT22;19476;51.448;6.674;2023-12-22T10:30:59;13.50;62.60
33105;DHT22;19476;51.448;6.674;2023-12-22T10:33:31;13.50;62.80
33105;DHT22;19476;51.448;6.674;2023-12-22T10:35:58;13.50;62.90
33105;DHT22;19476;51.448;6.674;2023-12-22T10:38:25;13.50;63.40
33105;DHT22;19476;51.448;6.674;2023-12-22T10:40:51;13.50;63.40
33105;DHT22;19476;51.448;6.674;2023-12-22T10:43:16;13.50;63.50
33105;DHT22;19476;51.448;6.674;2023-12-22T10:45:42;13.50;63.20
33105;DHT22;19476;51.448;6.674;2023-12-22T10:48:07;13.50;63.20
33105;DHT22;19476;51.448;6.674;2023-12-22T10:50:33;13.50;63.40
33105;DHT22;19476;51.448;6.674;2023-12-22T10:52:59;13.50;63.40
33105;DHT22;19476;51.448;6.674;2023-12-22T10:55:25;13.50;63.40
33105;DHT22;19476;51.448;6.674;2023-12-22T10:57:51;13.60;63.60
33105;DHT22;19476;51.448;6.674;2023-12-22T11:00:17;13.60;63.60
33105;DHT22;19476;51.448;6.674;2023-12-22T11:02:47;13.60;63.90
33105;DHT22;19476;51.448;6.674;2023-12-22T11:05:13;13.60;64.10
33105;DHT22;19476;51.448;6.674;2023-12-22T11:07:41;13.70;64.10
33105;DHT22;19476;51.448;6.674;2023-12-22T11:10:09;13.70;64.00
33105;DHT22;19476;51.448;6.674;2023-12-22T11:12:36;13.70;64.10
33105;DHT22;19476;51.448;6.674;2023-12-22T11:15:03;13.70;64.10
33105;DHT22;19476;51.448;6.674;2023-12-22T11:17:31;13.70;64.20
33105;DHT22;19476;51.448;6.674;2023-12-22T11:19:57;13.80;64.20
33105;DHT22;19476;51.448;6.674;2023-12-22T11:22:23;13.80;64.00
33105;DHT22;19476;51.448;6.674;2023-12-22T11:24:49;13.80;64.00
33105;DHT22;19476;51.448;6.674;2023-12-22T11:27:18;13.90;63.90
33105;DHT22;19476;51.448;6.674;2023-12-22T11:29:47;13.90;63.80
33105;DHT22;19476;51.448;6.674;2023-12-22T11:32:16;13.90;63.70
33105;DHT22;19476;51.448;6.674;2023-12-22T11:34:42;13.90;63.60
33105;DHT22;19476;51.448;6.674;2023-12-22T11:37:08;14.00;63.50
33105;DHT22;19476;51.448;6.674;2023-12-22T11:39:35;14.00;63.40
33105;DHT22;19476;51.448;6.674;2023-12-22T11:42:00;14.10;63.20
33105;DHT22;19476;51.448;6.674;2023-12-22T11:44:27;14.10;63.00
33105;DHT22;19476;51.448;6.674;2023-12-22T11:47:09;14.10;62.50
33105;DHT22;19476;51.448;6.674;2023-12-22T11:49:35;14.10;62.50
33105;DHT22;19476;51.448;6.674;2023-12-22T11:52:14;14.20;62.10
33105;DHT22;19476;51.448;6.674;2023-12-22T11:54:43;14.20;61.70
33105;DHT22;19476;51.448;6.674;2023-12-22T11:57:28;14.20;61.60
33105;DHT22;19476;51.448;6.674;2023-12-22T11:59:58;14.20;61.80
33105;DHT22;19476;51.448;6.674;2023-12-22T12:02:23;14.30;61.80
33105;DHT22;19476;51.448;6.674;2023-12-22T12:04:52;14.30;61.50
33105;DHT22;19476;51.448;6.674;2023-12-22T12:07:40;14.30;61.40
33105;DHT22;19476;51.448;6.674;2023-12-22T12:10:08;14.40;61.10
33105;DHT22;19476;51.448;6.674;2023-12-22T12:12:34;14.40;61.20
33105;DHT22;19476;51.448;6.674;2023-12-22T12:15:06;14.40;60.90
33105;DHT22;19476;51.448;6.674;2023-12-22T12:17:32;14.50;60.80
33105;DHT22;19476;51.448;6.674;2023-12-22T12:19:58;14.50;60.80
33105;DHT22;19476;51.448;6.674;2023-12-22T12:22:25;14.50;60.50
33105;DHT22;19476;51.448;6.674;2023-12-22T12:24:52;14.50;60.60
33105;DHT22;19476;51.448;6.674;2023-12-22T12:27:18;14.50;61.10
33105;DHT22;19476;51.448;6.674;2023-12-22T12:29:44;14.60;60.30
33105;DHT22;19476;51.448;6.674;2023-12-22T12:32:10;14.60;60.30
33105;DHT22;19476;51.448;6.674;2023-12-22T12:34:39;14.60;60.50
33105;DHT22;19476;51.448;6.674;2023-12-22T12:37:05;14.60;60.70
33105;DHT22;19476;51.448;6.674;2023-12-22T12:39:31;14.60;60.70
33105;DHT22;19476;51.448;6.674;2023-12-22T12:41:59;14.60;60.80
33105;DHT22;19476;51.448;6.674;2023-12-22T12:44:25;14.70;61.00
33105;DHT22;19476;51.448;6.674;2023-12-22T12:46:51;14.60;60.40
33105;DHT22;19476;51.448;6.674;2023-12-22T12:49:17;14.60;60.30
33105;DHT22;19476;51.448;6.674;2023-12-22T12:51:44;14.60;60.50
33105;DHT22;19476;51.448;6.674;2023-12-22T12:54:11;14.60;60.60
33105;DHT22;19476;51.448;6.674;2023-12-22T12:56:40;14.60;60.70
33105;DHT22;19476;51.448;6.674;2023-12-22T12:59:16;14.60;60.80
33105;DHT22;19476;51.448;6.674;2023-12-22T13:04:09;14.60;60.30
33105;DHT22;19476;51.448;6.674;2023-12-22T13:06:34;14.60;60.50
33105;DHT22;19476;51.448;6.674;2023-12-22T13:09:00;14.50;60.60
33105;DHT22;19476;51.448;6.674;2023-12-22T13:11:26;14.60;60.90
33105;DHT22;19476;51.448;6.674;2023-12-22T13:13:53;14.60;61.00
33105;DHT22;19476;51.448;6.674;2023-12-22T13:16:21;14.50;60.50
33105;DHT22;19476;51.448;6.674;2023-12-22T13:18:47;14.60;60.70
33105;DHT22;19476;51.448;6.674;2023-12-22T13:21:13;14.60;60.70
33105;DHT22;19476;51.448;6.674;2023-12-22T13:23:40;14.60;60.30
33105;DHT22;19476;51.448;6.674;2023-12-22T13:26:05;14.60;60.50
33105;DHT22;19476;51.448;6.674;2023-12-22T13:28:31;14.60;60.50
33105;DHT22;19476;51.448;6.674;2023-12-22T13:30:56;14.60;60.60
33105;DHT22;19476;51.448;6.674;2023-12-22T13:33:22;14.60;60.70
33105;DHT22;19476;51.448;6.674;2023-12-22T13:35:50;14.60;60.90
33105;DHT22;19476;51.448;6.674;2023-12-22T13:38:16;14.60;61.00
33105;DHT22;19476;51.448;6.674;2023-12-22T13:40:44;14.60;61.30
33105;DHT22;19476;51.448;6.674;2023-12-22T13:43:11;14.60;61.40
33105;DHT22;19476;51.448;6.674;2023-12-22T13:45:37;14.60;61.50
33105;DHT22;19476;51.448;6.674;2023-12-22T13:48:03;14.60;61.50
33105;DHT22;19476;51.448;6.674;2023-12-22T13:50:28;14.60;61.60
33105;DHT22;19476;51.448;6.674;2023-12-22T13:52:54;14.50;61.50
33105;DHT22;19476;51.448;6.674;2023-12-22T13:55:20;14.50;61.40
33105;DHT22;19476;51.448;6.674;2023-12-22T13:57:49;14.60;61.50
33105;DHT22;19476;51.448;6.674;2023-12-22T14:00:24;14.60;61.50
33105;DHT22;19476;51.448;6.674;2023-12-22T14:02:49;14.60;61.40
33105;DHT22;19476;51.448;6.674;2023-12-22T14:05:15;14.60;61.00
33105;DHT22;19476;51.448;6.674;2023-12-22T14:07:42;14.60;60.90
33105;DHT22;19476;51.448;6.674;2023-12-22T14:10:08;14.70;60.70
33105;DHT22;19476;51.448;6.674;2023-12-22T14:12:34;14.60;60.40
33105;DHT22;19476;51.448;6.674;2023-12-22T14:15:00;14.60;60.30
33105;DHT22;19476;51.448;6.674;2023-12-22T14:17:25;14.60;60.00
33105;DHT22;19476;51.448;6.674;2023-12-22T14:19:51;14.60;59.90
33105;DHT22;19476;51.448;6.674;2023-12-22T14:22:16;14.70;60.00
33105;DHT22;19476;51.448;6.674;2023-12-22T14:24:42;14.70;59.90
33105;DHT22;19476;51.448;6.674;2023-12-22T14:27:08;14.70;59.80
33105;DHT22;19476;51.448;6.674;2023-12-22T14:29:34;14.70;59.80
33105;DHT22;19476;51.448;6.674;2023-12-22T14:32:02;14.70;60.00
33105;DHT22;19476;51.448;6.674;2023-12-22T14:34:27;14.70;60.00
33105;DHT22;19476;51.448;6.674;2023-12-22T14:36:53;14.70;60.10
33105;DHT22;19476;51.448;6.674;2023-12-22T14:39:18;14.70;60.30
33105;DHT22;19476;51.448;6.674;2023-12-22T14:41:44;14.80;60.40
33105;DHT22;19476;51.448;6.674;2023-12-22T14:44:12;14.80;60.30
33105;DHT22;19476;51.448;6.674;2023-12-22T14:46:40;14.80;59.90
33105;DHT22;19476;51.448;6.674;2023-12-22T14:49:06;14.80;59.90
33105;DHT22;19476;51.448;6.674;2023-12-22T14:51:35;14.80;59.70
33105;DHT22;19476;51.448;6.674;2023-12-22T14:54:01;14.80;59.80
33105;DHT22;19476;51.448;6.674;2023-12-22T14:56:27;14.80;59.80
33105;DHT22;19476;51.448;6.674;2023-12-22T14:58:52;14.70;59.70
33105;DHT22;19476;51.448;6.674;2023-12-22T15:01:18;14.70;59.80
33105;DHT22;19476;51.448;6.674;2023-12-22T15:03:43;14.70;60.30
33105;DHT22;19476;51.448;6.674;2023-12-22T15:06:09;14.60;60.80
33105;DHT22;19476;51.448;6.674;2023-12-22T15:08:34;14.60;61.00
33105;DHT22;19476;51.448;6.674;2023-12-22T15:11:00;14.50;61.20
33105;DHT22;19476;51.448;6.674;2023-12-22T15:13:26;14.50;61.20
33105;DHT22;19476;51.448;6.674;2023-12-22T15:15:51;14.40;61.40
33105;DHT22;19476;51.448;6.674;2023-12-22T15:18:17;14.40;61.70
33105;DHT22;19476;51.448;6.674;2023-12-22T15:20:42;14.30;62.30
33105;DHT22;19476;51.448;6.674;2023-12-22T15:23:08;14.30;62.30
33105;DHT22;19476;51.448;6.674;2023-12-22T15:25:34;14.30;62.50
33105;DHT22;19476;51.448;6.674;2023-12-22T15:28:00;14.30;62.70
33105;DHT22;19476;51.448;6.674;2023-12-22T15:30:26;14.30;62.80